createdAt,value
2022-11-08T00:01:21.050Z,7.70
2022-11-08T00:03:48.121Z,7.25
2022-11-08T00:06:34.973Z,7.50
2022-11-08T00:09:21.957Z,7.72
2022-11-08T00:12:08.913Z,8.10
2022-11-08T00:14:36.349Z,8.02
2022-11-08T00:17:03.654Z,8.00
2022-11-08T00:19:31.008Z,6.95
2022-11-08T00:21:57.708Z,7.55
2022-11-08T00:24:24.440Z,7.47
2022-11-08T00:26:51.488Z,7.30
2022-11-08T00:29:18.540Z,7.97
2022-11-08T00:31:45.597Z,6.95
2022-11-08T00:34:12.697Z,6.72
2022-11-08T00:36:39.726Z,6.07
2022-11-08T00:39:06.784Z,6.07
2022-11-08T00:41:33.857Z,5.82
2022-11-08T00:44:00.905Z,5.93
2022-11-08T00:46:28.197Z,6.30
2022-11-08T00:48:55.293Z,6.60
2022-11-08T00:51:22.440Z,6.30
2022-11-08T00:53:49.524Z,5.97
2022-11-08T00:56:18.401Z,6.63
2022-11-08T00:58:45.444Z,6.72
2022-11-08T01:01:13.521Z,7.40
2022-11-08T01:03:40.620Z,7.15
2022-11-08T01:06:08.807Z,6.97
2022-11-08T01:08:35.919Z,6.53
2022-11-08T01:11:04.244Z,6.35
2022-11-08T01:13:31.962Z,6.60
2022-11-08T01:15:59.192Z,6.20
2022-11-08T01:18:26.236Z,6.15
2022-11-08T01:20:53.296Z,6.15
2022-11-08T01:23:20.460Z,6.47
2022-11-08T01:25:49.755Z,5.70
2022-11-08T01:28:17.676Z,6.30
2022-11-08T01:30:45.476Z,5.85
2022-11-08T01:33:13.023Z,6.30
2022-11-08T01:35:40.416Z,6.23
2022-11-08T01:38:07.531Z,6.50
2022-11-08T01:40:34.965Z,5.80
2022-11-08T01:43:21.957Z,6.22
2022-11-08T01:46:08.991Z,6.28
2022-11-08T01:48:36.700Z,6.30
2022-11-08T01:51:03.835Z,6.63
2022-11-08T01:53:31.000Z,6.47
2022-11-08T01:55:58.380Z,5.43
2022-11-08T01:58:26.875Z,5.10
2022-11-08T02:00:54.038Z,5.63
2022-11-08T02:03:21.572Z,5.28
2022-11-08T02:05:48.767Z,5.38
2022-11-08T02:08:21.995Z,5.45
2022-11-08T02:10:51.336Z,5.20
2022-11-08T02:13:21.271Z,4.87
2022-11-08T02:15:48.426Z,4.55
2022-11-08T02:18:16.377Z,5.18
2022-11-08T02:20:47.508Z,4.65
2022-11-08T02:23:19.058Z,4.68
2022-11-08T02:25:46.103Z,4.95
2022-11-08T02:28:13.123Z,5.07
2022-11-08T02:30:40.238Z,4.80
2022-11-08T02:33:15.568Z,4.85
2022-11-08T02:35:42.920Z,5.13
2022-11-08T02:38:09.936Z,4.80
2022-11-08T02:40:53.567Z,4.75
2022-11-08T02:43:21.033Z,5.13
2022-11-08T02:45:48.622Z,4.95
2022-11-08T02:48:16.424Z,4.60
2022-11-08T02:50:43.820Z,4.63
2022-11-08T02:53:11.163Z,5.00
2022-11-08T02:55:38.276Z,5.23
2022-11-08T02:58:05.385Z,5.10
2022-11-08T03:00:32.639Z,4.40
2022-11-08T03:02:59.711Z,4.60
2022-11-08T03:05:27.467Z,4.37
2022-11-08T03:07:55.065Z,4.60
2022-11-08T03:10:22.774Z,4.97
2022-11-08T03:12:59.089Z,4.88
2022-11-08T03:15:26.556Z,5.10
2022-11-08T03:17:53.641Z,5.00
2022-11-08T03:20:20.728Z,5.30
2022-11-08T03:22:48.079Z,5.30
2022-11-08T03:25:14.851Z,5.60
2022-11-08T03:27:42.035Z,5.38
2022-11-08T03:30:09.224Z,4.90
2022-11-08T03:32:36.260Z,4.90
2022-11-08T03:35:03.399Z,5.45
2022-11-08T03:37:30.458Z,4.97
2022-11-08T03:39:57.496Z,4.70
2022-11-08T03:42:24.494Z,5.00
2022-11-08T03:44:51.167Z,5.28
2022-11-08T03:47:18.222Z,4.60
2022-11-08T03:49:45.268Z,4.38
2022-11-08T03:52:12.309Z,4.35
2022-11-08T03:54:39.379Z,4.70
2022-11-08T03:57:06.039Z,4.65
2022-11-08T03:59:33.134Z,5.00
2022-11-08T04:02:00.368Z,4.53
2022-11-08T04:04:27.490Z,4.40
2022-11-08T04:06:54.516Z,4.77
2022-11-08T04:09:21.895Z,4.88
2022-11-08T04:12:08.862Z,4.63
2022-11-08T04:14:55.835Z,4.40
2022-11-08T04:17:42.775Z,4.05
2022-11-08T04:20:30.243Z,4.05
2022-11-08T04:22:57.282Z,4.65
2022-11-08T04:25:24.312Z,4.00
2022-11-08T04:27:51.395Z,3.95
2022-11-08T04:30:18.481Z,4.45
2022-11-08T04:32:45.523Z,4.10
2022-11-08T04:35:12.638Z,4.15
2022-11-08T04:37:39.754Z,4.68
2022-11-08T04:40:07.091Z,4.32
2022-11-08T04:42:34.467Z,3.95
2022-11-08T04:45:01.540Z,4.13
2022-11-08T04:47:30.728Z,4.32
2022-11-08T04:50:00.448Z,3.90
2022-11-08T04:52:27.496Z,4.10
2022-11-08T04:54:54.571Z,4.28
2022-11-08T04:57:21.642Z,3.90
2022-11-08T04:59:48.689Z,4.30
2022-11-08T05:02:15.867Z,4.10
2022-11-08T05:04:43.107Z,3.97
2022-11-08T05:07:10.161Z,4.07
2022-11-08T05:09:37.238Z,3.97
2022-11-08T05:12:04.357Z,4.30
2022-11-08T05:14:31.425Z,4.22
2022-11-08T05:16:58.453Z,4.18
2022-11-08T05:19:45.476Z,3.80
2022-11-08T05:22:32.437Z,4.03
2022-11-08T05:24:59.506Z,3.83
2022-11-08T05:27:26.566Z,3.97
2022-11-08T05:29:53.625Z,4.20
2022-11-08T05:32:20.709Z,4.20
2022-11-08T05:34:47.893Z,3.83
2022-11-08T05:37:14.921Z,3.50
2022-11-08T05:39:41.985Z,3.70
2022-11-08T05:42:09.141Z,4.00
2022-11-08T05:44:36.185Z,3.83
2022-11-08T05:47:03.313Z,3.60
2022-11-08T05:49:30.381Z,4.63
2022-11-08T05:51:57.773Z,4.22
2022-11-08T05:54:24.405Z,4.38
2022-11-08T05:56:51.493Z,5.20
2022-11-08T05:59:18.530Z,4.53
2022-11-08T06:01:45.581Z,4.60
2022-11-08T06:04:12.935Z,4.57
2022-11-08T06:06:40.256Z,4.28
2022-11-08T06:09:07.324Z,4.37
2022-11-08T06:11:34.393Z,4.32
2022-11-08T06:14:01.465Z,4.80
2022-11-08T06:16:28.576Z,5.07
2022-11-08T06:18:55.754Z,5.30
2022-11-08T06:21:22.894Z,4.82
2022-11-08T06:23:52.401Z,4.80
2022-11-08T06:26:21.972Z,5.00
2022-11-08T06:28:49.059Z,4.70
2022-11-08T06:31:16.107Z,5.03
2022-11-08T06:33:43.198Z,5.35
2022-11-08T06:36:09.916Z,5.30
2022-11-08T06:38:37.080Z,6.00
2022-11-08T06:41:04.140Z,6.15
2022-11-08T06:43:31.321Z,6.00
2022-11-08T06:46:02.321Z,6.03
2022-11-08T06:48:35.052Z,6.07
2022-11-08T06:51:02.728Z,5.78
2022-11-08T06:53:29.827Z,5.38
2022-11-08T06:55:56.862Z,5.00
2022-11-08T06:58:23.937Z,5.50
2022-11-08T07:00:50.963Z,7.43
2022-11-08T07:03:18.457Z,7.55
2022-11-08T07:05:45.838Z,6.78
2022-11-08T07:08:12.892Z,5.88
2022-11-08T07:10:40.650Z,5.40
2022-11-08T07:13:08.920Z,6.43
2022-11-08T07:15:36.733Z,5.97
2022-11-08T07:18:05.145Z,6.03
2022-11-08T07:20:32.277Z,5.30
2022-11-08T07:22:59.621Z,5.90
2022-11-08T07:25:27.116Z,7.57
2022-11-08T07:27:55.981Z,7.70
2022-11-08T07:30:23.113Z,9.02
2022-11-08T07:32:50.253Z,7.65
2022-11-08T07:35:17.356Z,7.13
2022-11-08T07:37:44.368Z,7.07
2022-11-08T07:40:11.797Z,6.87
2022-11-08T07:43:09.590Z,7.18
2022-11-08T07:45:26.438Z,7.60
2022-11-08T07:48:03.408Z,7.65
2022-11-08T07:50:33.932Z,7.47
2022-11-08T07:53:01.020Z,8.10
2022-11-08T07:55:28.065Z,7.72
2022-11-08T07:58:01.942Z,7.40
2022-11-08T08:00:29.979Z,7.65
2022-11-08T08:02:59.283Z,7.63
2022-11-08T08:05:27.546Z,7.53
2022-11-08T08:07:57.678Z,7.40
2022-11-08T08:10:25.071Z,8.83
2022-11-08T08:12:52.163Z,8.80
2022-11-08T08:15:19.215Z,10.50
2022-11-08T08:17:46.379Z,9.73
2022-11-08T08:20:13.752Z,10.93
2022-11-08T08:22:45.418Z,9.00
2022-11-08T08:25:12.964Z,7.50
2022-11-08T08:27:40.228Z,7.30
2022-11-08T08:30:07.644Z,6.10
2022-11-08T08:32:34.948Z,6.30
2022-11-08T08:35:02.132Z,5.82
2022-11-08T08:37:29.231Z,5.57
2022-11-08T08:39:56.263Z,5.30
2022-11-08T08:42:23.295Z,5.28
2022-11-08T08:44:50.420Z,5.57
2022-11-08T08:47:17.660Z,5.68
2022-11-08T08:49:44.699Z,5.40
2022-11-08T08:52:11.795Z,7.70
2022-11-08T08:54:38.848Z,8.13
2022-11-08T08:57:05.899Z,5.03
2022-11-08T09:02:19.938Z,4.40
2022-11-08T09:04:46.943Z,4.03
2022-11-08T09:07:14.013Z,4.00
2022-11-08T09:09:41.168Z,4.07
2022-11-08T09:12:11.767Z,3.80
2022-11-08T09:14:41.432Z,3.90
2022-11-08T09:17:08.471Z,3.92
2022-11-08T09:19:35.854Z,3.30
2022-11-08T09:22:02.931Z,3.22
2022-11-08T09:24:30.037Z,3.25
2022-11-08T09:26:57.106Z,3.90
2022-11-08T09:29:24.115Z,3.50
2022-11-08T09:31:51.185Z,3.25
2022-11-08T09:34:20.715Z,3.47
2022-11-08T09:36:48.684Z,2.70
2022-11-08T09:39:16.406Z,2.58
2022-11-08T09:41:48.147Z,3.00
2022-11-08T09:44:37.184Z,2.50
2022-11-08T09:47:08.171Z,3.35
2022-11-08T09:49:41.959Z,2.90
2022-11-08T09:52:12.274Z,2.45
2022-11-08T09:54:41.885Z,2.70
2022-11-08T09:57:21.187Z,2.40
2022-11-08T09:59:51.211Z,2.50
2022-11-08T10:02:20.828Z,2.53
2022-11-08T10:04:52.907Z,2.87
2022-11-08T10:07:21.028Z,2.38
2022-11-08T10:09:58.766Z,2.40
2022-11-08T10:12:26.810Z,2.47
2022-11-08T10:15:13.829Z,2.57
2022-11-08T10:17:50.965Z,2.40
2022-11-08T10:20:28.177Z,2.50
2022-11-08T10:23:00.035Z,2.22
2022-11-08T10:25:37.829Z,2.47
2022-11-08T10:28:07.814Z,2.70
2022-11-08T10:30:36.970Z,2.70
2022-11-08T10:33:12.850Z,2.30
2022-11-08T10:35:46.315Z,2.38
2022-11-08T10:38:22.402Z,2.40
2022-11-08T10:40:55.263Z,2.10
2022-11-08T10:43:26.121Z,2.35
2022-11-08T10:45:53.179Z,2.08
2022-11-08T10:48:20.550Z,2.10
2022-11-08T10:50:50.562Z,2.50
2022-11-08T10:53:21.652Z,2.28
2022-11-08T10:55:50.855Z,2.40
2022-11-08T10:58:33.654Z,2.47
2022-11-08T11:01:02.851Z,2.40
2022-11-08T11:03:30.425Z,2.17
2022-11-08T11:06:00.108Z,2.50
2022-11-08T11:08:27.441Z,2.35
2022-11-08T11:10:54.907Z,2.47
2022-11-08T11:15:54.434Z,2.08
2022-11-08T11:18:25.281Z,2.38
2022-11-08T11:21:08.437Z,2.25
2022-11-08T11:23:43.162Z,1.90
2022-11-08T11:26:21.526Z,1.80
2022-11-08T11:29:17.346Z,1.88
2022-11-08T11:31:48.357Z,1.75
2022-11-08T11:34:18.252Z,2.13
2022-11-08T11:36:55.837Z,1.50
2022-11-08T11:39:28.663Z,1.88
2022-11-08T11:42:39.386Z,1.80
2022-11-08T11:45:03.370Z,1.58
2022-11-08T11:47:30.523Z,1.58
2022-11-08T11:50:01.247Z,1.67
2022-11-08T11:52:28.294Z,1.50
2022-11-08T11:54:54.954Z,1.70
2022-11-08T11:57:42.546Z,1.60
2022-11-08T12:00:12.827Z,1.50
2022-11-08T12:02:59.908Z,1.85
2022-11-08T12:05:32.068Z,1.95
2022-11-08T12:08:10.253Z,1.65
2022-11-08T12:10:40.129Z,1.63
2022-11-08T12:13:10.469Z,1.70
2022-11-08T12:15:45.131Z,1.50
2022-11-08T12:18:25.725Z,1.70
2022-11-08T12:21:16.220Z,1.40
2022-11-08T12:24:03.245Z,1.70
2022-11-08T12:26:31.285Z,1.50
2022-11-08T12:29:18.300Z,1.70
2022-11-08T12:32:05.253Z,1.70
2022-11-08T12:34:42.810Z,1.70
2022-11-08T12:37:23.270Z,1.60
2022-11-08T12:39:51.993Z,1.45
2022-11-08T12:42:22.337Z,1.58
2022-11-08T12:44:48.949Z,1.70
2022-11-08T12:47:30.075Z,1.60
2022-11-08T12:50:17.101Z,1.98
2022-11-08T12:52:52.888Z,1.40
2022-11-08T12:55:28.348Z,1.60
2022-11-08T12:57:58.101Z,1.70
2022-11-08T13:00:27.644Z,1.55
2022-11-08T13:03:01.049Z,1.83
2022-11-08T13:05:32.176Z,1.60
2022-11-08T13:08:02.516Z,1.73
2022-11-08T13:10:49.709Z,1.83
2022-11-08T13:13:23.717Z,1.88
2022-11-08T13:16:10.760Z,1.50
2022-11-08T13:18:44.568Z,1.52
2022-11-08T13:21:31.602Z,1.70
2022-11-08T13:24:14.209Z,1.55
2022-11-08T13:26:59.149Z,1.70
2022-11-08T13:29:27.466Z,1.40
2022-11-08T13:31:57.860Z,1.70
2022-11-08T13:34:44.833Z,1.88
2022-11-08T13:37:31.817Z,1.60
2022-11-08T13:40:00.173Z,1.70
2022-11-08T13:42:29.125Z,1.80
2022-11-08T13:44:56.465Z,1.70
2022-11-08T13:47:43.420Z,1.60
2022-11-08T13:50:33.613Z,2.10
2022-11-08T13:53:01.707Z,1.50
2022-11-08T13:55:44.339Z,1.77
2022-11-08T13:58:31.334Z,2.03
2022-11-08T14:00:58.700Z,1.50
2022-11-08T14:03:33.330Z,1.77
2022-11-08T14:06:05.983Z,1.65
2022-11-08T14:08:52.967Z,1.70
2022-11-08T14:11:39.979Z,1.50
2022-11-08T14:14:14.403Z,1.63
2022-11-08T14:16:46.107Z,2.30
2022-11-08T14:19:23.491Z,1.70
2022-11-08T14:21:51.993Z,1.50
2022-11-08T14:24:21.615Z,1.93
2022-11-08T14:26:48.906Z,1.70
2022-11-08T14:29:17.343Z,1.67
2022-11-08T14:31:44.950Z,3.03
2022-11-08T14:34:31.936Z,1.98
2022-11-08T14:36:59.551Z,1.75
2022-11-08T14:39:29.273Z,2.00
2022-11-08T14:41:57.537Z,2.30
2022-11-08T14:44:24.882Z,1.92
2022-11-08T14:46:52.111Z,1.70
2022-11-08T14:49:19.181Z,1.70
2022-11-08T14:51:46.651Z,2.00
2022-11-08T14:54:16.990Z,2.05
2022-11-08T14:56:45.029Z,3.20
2022-11-08T14:59:13.315Z,3.88
2022-11-08T15:01:41.537Z,2.90
2022-11-08T15:04:25.992Z,2.88
2022-11-08T15:06:54.086Z,2.70
2022-11-08T15:09:30.260Z,1.92
2022-11-08T15:12:00.471Z,1.83
2022-11-08T15:14:29.825Z,2.33
2022-11-08T15:17:02.547Z,2.50
2022-11-08T15:19:30.119Z,1.90
2022-11-08T15:21:57.604Z,2.50
2022-11-08T15:24:40.737Z,3.30
2022-11-08T15:27:16.600Z,4.13
2022-11-08T15:30:07.126Z,3.78
2022-11-08T15:32:36.791Z,4.10
2022-11-08T15:35:05.004Z,3.30
2022-11-08T15:37:35.256Z,3.17
2022-11-08T15:40:03.479Z,2.90
2022-11-08T15:42:30.714Z,2.50
2022-11-08T15:45:02.301Z,2.92
2022-11-08T15:47:45.980Z,2.35
2022-11-08T15:50:15.805Z,2.80
2022-11-08T15:52:43.206Z,3.33
2022-11-08T15:55:13.874Z,14.43
2022-11-08T15:57:42.334Z,15.30
2022-11-08T16:00:18.426Z,12.98
2022-11-08T16:02:45.841Z,12.43
2022-11-08T16:05:15.871Z,8.05
2022-11-08T16:07:43.921Z,10.85
2022-11-08T16:10:11.732Z,8.18
2022-11-08T16:12:40.142Z,5.85
2022-11-08T16:15:11.346Z,7.75
2022-11-08T16:17:38.411Z,7.15
2022-11-08T16:20:19.275Z,10.63
2022-11-08T16:22:46.330Z,7.18
2022-11-08T16:25:13.426Z,6.70
2022-11-08T16:27:40.587Z,6.28
2022-11-08T16:30:15.854Z,7.47
2022-11-08T16:32:43.418Z,4.80
2022-11-08T16:35:10.610Z,6.18
2022-11-08T16:37:38.466Z,5.53
2022-11-08T16:40:14.362Z,6.00
2022-11-08T16:42:41.451Z,9.75
2022-11-08T16:45:09.114Z,16.15
2022-11-08T16:47:36.707Z,16.30
2022-11-08T16:50:04.024Z,15.05
2022-11-08T16:52:30.814Z,13.05
2022-11-08T16:54:57.902Z,12.65
2022-11-08T16:57:40.356Z,10.88
2022-11-08T17:00:08.966Z,10.43
2022-11-08T17:02:36.967Z,9.90
2022-11-08T17:05:04.637Z,9.45
2022-11-08T17:07:31.734Z,10.50
2022-11-08T17:09:58.877Z,12.77
2022-11-08T17:12:26.490Z,10.57
2022-11-08T17:14:55.623Z,12.65
2022-11-08T17:17:22.774Z,8.40
2022-11-08T17:19:49.810Z,8.52
2022-11-08T17:22:16.870Z,8.43
2022-11-08T17:24:43.932Z,8.20
2022-11-08T17:27:10.716Z,8.75
2022-11-08T17:29:37.785Z,6.90
2022-11-08T17:32:04.894Z,6.30
2022-11-08T17:34:32.006Z,6.28
2022-11-08T17:36:59.069Z,6.13
2022-11-08T17:39:26.122Z,6.85
2022-11-08T17:41:53.177Z,10.02
2022-11-08T17:44:20.328Z,12.57
2022-11-08T17:46:48.080Z,9.90
2022-11-08T17:49:15.197Z,8.80
2022-11-08T17:51:42.306Z,10.68
2022-11-08T17:54:09.415Z,9.80
2022-11-08T17:56:36.531Z,8.57
2022-11-08T17:59:04.044Z,8.02
2022-11-08T18:01:32.037Z,7.68
2022-11-08T18:03:59.285Z,9.15
2022-11-08T18:06:26.624Z,9.35
2022-11-08T18:08:55.653Z,9.50
2022-11-08T18:11:22.941Z,12.27
2022-11-08T18:13:50.221Z,14.05
2022-11-08T18:16:18.972Z,13.73
2022-11-08T18:18:46.746Z,14.75
2022-11-08T18:21:14.104Z,11.05
2022-11-08T18:23:41.735Z,6.00
2022-11-08T18:26:09.478Z,6.20
2022-11-08T18:28:37.570Z,5.47
2022-11-08T18:31:05.947Z,5.50
2022-11-08T18:33:33.124Z,4.35
2022-11-08T18:36:04.528Z,4.50
2022-11-08T18:38:31.638Z,4.45
2022-11-08T18:40:58.740Z,4.57
2022-11-08T18:43:25.776Z,4.95
2022-11-08T18:45:52.868Z,5.10
2022-11-08T18:48:19.960Z,4.95
2022-11-08T18:50:50.997Z,4.97
2022-11-08T18:53:18.661Z,4.95
2022-11-08T18:55:45.908Z,4.88
2022-11-08T18:58:13.029Z,4.88
2022-11-08T19:00:40.165Z,5.13
2022-11-08T19:03:07.248Z,4.90
2022-11-08T19:05:34.306Z,4.70
2022-11-08T19:08:01.030Z,6.72
2022-11-08T19:10:28.108Z,6.63
2022-11-08T19:12:55.164Z,9.13
2022-11-08T19:15:23.184Z,8.10
2022-11-08T19:17:53.800Z,10.25
2022-11-08T19:20:23.843Z,8.30
2022-11-08T19:22:54.692Z,6.82
2022-11-08T19:25:21.771Z,6.03
2022-11-08T19:27:48.859Z,6.32
2022-11-08T19:30:15.969Z,5.65
2022-11-08T19:32:43.098Z,5.80
2022-11-08T19:35:10.234Z,11.67
2022-11-08T19:37:37.377Z,11.27
2022-11-08T19:40:04.995Z,8.90
2022-11-08T19:42:32.052Z,12.45
2022-11-08T19:44:59.113Z,9.55
2022-11-08T19:47:26.297Z,10.97
2022-11-08T19:49:53.353Z,9.47
2022-11-08T19:52:20.462Z,8.38
2022-11-08T19:54:48.225Z,7.57
2022-11-08T19:57:15.296Z,7.00
2022-11-08T19:59:42.337Z,7.20
2022-11-08T20:02:10.054Z,7.70
2022-11-08T20:04:37.237Z,10.32
2022-11-08T20:07:04.397Z,12.02
2022-11-08T20:09:35.445Z,8.90
2022-11-08T20:12:05.579Z,9.30
2022-11-08T20:14:32.631Z,8.45
2022-11-08T20:16:59.738Z,7.00
2022-11-08T20:19:26.854Z,6.78
2022-11-08T20:21:56.375Z,7.13
2022-11-08T20:24:23.643Z,7.00
2022-11-08T20:26:50.687Z,7.30
2022-11-08T20:29:18.279Z,7.18
2022-11-08T20:31:45.774Z,7.55
2022-11-08T20:34:12.978Z,8.10
2022-11-08T20:36:41.480Z,7.18
2022-11-08T20:39:08.632Z,7.75
2022-11-08T20:41:37.527Z,8.73
2022-11-08T20:44:05.462Z,8.77
2022-11-08T20:46:33.124Z,9.15
2022-11-08T20:49:01.129Z,8.48
2022-11-08T20:51:29.817Z,9.02
2022-11-08T20:53:57.252Z,10.52
2022-11-08T20:56:25.039Z,13.48
2022-11-08T20:58:52.719Z,12.15
2022-11-08T21:01:21.499Z,13.30
2022-11-08T21:03:49.089Z,16.55
2022-11-08T21:06:17.390Z,15.40
2022-11-08T21:11:34.305Z,11.32
2022-11-08T21:14:01.654Z,9.68
2022-11-08T21:16:31.962Z,8.85
2022-11-08T21:19:05.710Z,8.90
2022-11-08T21:21:33.007Z,8.77
2022-11-08T21:24:00.149Z,9.40
2022-11-08T21:26:27.530Z,9.68
2022-11-08T21:28:54.624Z,9.52
2022-11-08T21:31:21.722Z,9.43
2022-11-08T21:33:48.783Z,11.30
2022-11-08T21:36:17.315Z,14.10
2022-11-08T21:38:44.568Z,14.57
2022-11-08T21:41:12.070Z,15.40
2022-11-08T21:43:42.832Z,15.90
2022-11-08T21:46:26.448Z,13.60
2022-11-08T21:48:54.526Z,13.30
2022-11-08T21:51:21.624Z,14.27
2022-11-08T21:53:54.798Z,14.03
2022-11-08T21:56:23.527Z,14.45
2022-11-08T21:58:50.590Z,13.95
2022-11-08T22:01:17.967Z,14.88
2022-11-08T22:03:45.076Z,14.82
2022-11-08T22:06:12.200Z,14.45
2022-11-08T22:08:39.269Z,13.50
2022-11-08T22:11:06.426Z,11.65
2022-11-08T22:13:33.545Z,9.93
2022-11-08T22:16:00.633Z,11.73
2022-11-08T22:18:43.437Z,11.00
2022-11-08T22:21:34.711Z,10.53
2022-11-08T22:24:01.662Z,10.70
2022-11-08T22:26:28.717Z,11.20
2022-11-08T22:28:55.774Z,11.00
2022-11-08T22:31:22.825Z,9.70
2022-11-08T22:33:49.941Z,8.00
2022-11-08T22:36:19.319Z,11.10
2022-11-08T22:38:46.653Z,8.65
2022-11-08T22:41:21.750Z,11.07
2022-11-08T22:43:48.848Z,10.65
2022-11-08T22:46:16.946Z,14.80
2022-11-08T22:48:44.245Z,17.67
2022-11-08T22:51:11.629Z,13.55
2022-11-08T22:53:38.689Z,14.50
2022-11-08T22:56:10.958Z,13.88
2022-11-08T22:58:38.242Z,13.40
2022-11-08T23:01:05.331Z,12.70
2022-11-08T23:03:32.366Z,12.80
2022-11-08T23:05:59.479Z,12.45
2022-11-08T23:08:27.050Z,12.90
2022-11-08T23:11:14.067Z,12.30
2022-11-08T23:14:01.135Z,12.23
2022-11-08T23:16:35.943Z,12.48
2022-11-08T23:19:24.800Z,13.77
2022-11-08T23:22:12.231Z,11.88
2022-11-08T23:24:39.561Z,12.30
2022-11-08T23:27:27.166Z,12.10
2022-11-08T23:30:14.210Z,10.55
2022-11-08T23:32:43.678Z,11.15
2022-11-08T23:35:11.118Z,11.07
2022-11-08T23:37:38.270Z,10.93
2022-11-08T23:40:26.269Z,10.45
2022-11-08T23:43:33.144Z,10.73
2022-11-08T23:46:05.493Z,10.88
2022-11-08T23:48:32.530Z,10.33
2022-11-08T23:50:59.631Z,9.68
2022-11-08T23:53:26.759Z,9.18
2022-11-08T23:55:54.715Z,9.52
2022-11-08T23:58:22.387Z,9.00
